Time;durP1;ratioP1;P1;durP2;ratioP2;P2;SDS_P1;SDS_P2;PMS_P1;PMS_P2;Temp;Humidity;BMP_temperature;BMP_pressure;BME280_temperature;BME280_humidity;BME280_pressure;Samples;Min_cycle;Max_cycle;Signal;HPM_P1;HPM_P2
2023/06/29 00:01:07;;;;;;;11.80;6.97;;;;;;;18.92;100.00;100026.00;5085775;28;20035;-18
2023/06/29 00:03:33;;;;;;;16.90;6.90;;;;;;;18.84;100.00;100023.88;5085680;28;20028;-18
2023/06/29 00:06:01;;;;;;;10.00;6.50;;;;;;;18.95;100.00;100020.03;5085610;28;20032;-19
2023/06/29 00:08:35;;;;;;;9.55;6.10;;;;;;;18.91;100.00;100004.66;5085350;28;20028;-23
2023/06/29 00:11:02;;;;;;;9.88;6.15;;;;;;;19.07;100.00;100025.13;5085554;28;20020;-18
2023/06/29 00:13:28;;;;;;;15.48;7.38;;;;;;;19.08;100.00;100026.72;5085387;28;20035;-20
2023/06/29 00:15:53;;;;;;;9.65;6.88;;;;;;;19.07;100.00;100025.13;5085698;28;20032;-19
2023/06/29 00:18:19;;;;;;;9.77;6.40;;;;;;;19.05;100.00;100025.41;5085685;28;20031;-18
2023/06/29 00:20:44;;;;;;;11.55;6.65;;;;;;;18.77;100.00;100029.50;5085607;28;20470;-18
2023/06/29 00:23:10;;;;;;;14.13;6.90;;;;;;;18.60;100.00;100023.63;5085755;28;20032;-18
2023/06/29 00:25:38;;;;;;;9.68;6.28;;;;;;;18.60;100.00;100023.63;5085480;28;20121;-18
2023/06/29 00:28:04;;;;;;;9.82;5.85;;;;;;;18.49;100.00;100020.13;5085219;28;20032;-19
2023/06/29 00:30:29;;;;;;;10.70;6.63;;;;;;;18.30;100.00;100014.47;5085361;28;20035;-18
2023/06/29 00:32:55;;;;;;;9.93;6.43;;;;;;;18.22;100.00;100006.91;5085519;28;20085;-18
2023/06/29 00:35:20;;;;;;;10.82;6.25;;;;;;;18.16;100.00;100013.38;5085327;28;20036;-19
2023/06/29 00:37:46;;;;;;;9.80;6.57;;;;;;;18.16;100.00;100003.41;5085252;28;20391;-19
2023/06/29 00:40:12;;;;;;;10.70;6.70;;;;;;;18.30;100.00;100002.88;5085555;28;20024;-18
2023/06/29 00:42:37;;;;;;;10.30;6.82;;;;;;;18.27;100.00;99996.13;5088787;28;20130;-18
2023/06/29 00:45:04;;;;;;;9.93;6.45;;;;;;;18.33;100.00;99994.19;5089370;28;20121;-18
2023/06/29 00:47:31;;;;;;;9.70;6.53;;;;;;;18.40;100.00;99990.16;5088938;28;20032;-20
2023/06/29 00:50:00;;;;;;;12.45;6.65;;;;;;;18.50;100.00;100002.03;5089407;28;20101;-19
2023/06/29 00:52:27;;;;;;;10.38;6.38;;;;;;;18.45;100.00;100000.94;5089131;28;20032;-19
2023/06/29 00:54:55;;;;;;;11.57;6.60;;;;;;;18.39;100.00;100022.84;5089396;28;20104;-18
2023/06/29 00:57:20;;;;;;;11.23;5.97;;;;;;;18.16;100.00;100025.00;5088669;28;20467;-19
2023/06/29 00:59:46;;;;;;;10.80;6.22;;;;;;;18.05;100.00;100015.28;5089035;28;20032;-18
2023/06/29 01:02:15;;;;;;;10.55;6.45;;;;;;;17.93;100.00;100025.53;5088996;28;20458;-20
2023/06/29 01:04:41;;;;;;;9.00;5.78;;;;;;;17.87;100.00;100027.41;5088983;28;20068;-18
2023/06/29 01:07:16;;;;;;;10.45;6.55;;;;;;;17.64;100.00;100012.50;5088439;28;20495;-21
2023/06/29 01:09:44;;;;;;;9.55;6.30;;;;;;;17.74;100.00;100023.31;5088762;28;20028;-21
2023/06/29 01:12:12;;;;;;;11.20;5.78;;;;;;;17.86;100.00;100031.19;5088686;28;20040;-19
2023/06/29 01:14:39;;;;;;;8.15;5.57;;;;;;;17.70;100.00;100037.63;5088691;28;20067;-18
2023/06/29 01:17:05;;;;;;;10.27;6.38;;;;;;;17.73;100.00;100042.47;5088931;28;20066;-18
2023/06/29 01:19:33;;;;;;;8.82;6.05;;;;;;;17.74;100.00;100047.59;5088662;28;20107;-19
2023/06/29 01:22:17;;;;;;;9.93;6.10;;;;;;;17.86;100.00;100031.19;5088545;28;20051;-21
2023/06/29 01:24:43;;;;;;;9.63;6.22;;;;;;;17.86;100.00;100036.59;5088536;28;20143;-19
2023/06/29 01:27:09;;;;;;;13.05;5.35;;;;;;;17.73;100.00;100032.47;5088444;28;20027;-17
2023/06/29 01:29:35;;;;;;;9.65;6.15;;;;;;;17.74;100.00;100033.31;5088238;28;20048;-19
2023/06/29 01:32:03;;;;;;;8.57;5.55;;;;;;;17.49;100.00;100037.56;5088193;28;20044;-19
2023/06/29 01:34:31;;;;;;;9.65;5.95;;;;;;;17.36;100.00;100028.06;5088281;28;20548;-22
2023/06/29 01:37:09;;;;;;;7.70;5.53;;;;;;;17.37;100.00;100035.09;5088455;28;20039;-18
2023/06/29 01:39:53;;;;;;;8.40;5.35;;;;;;;17.21;100.00;100036.91;5088083;28;20036;-17
2023/06/29 01:42:20;;;;;;;9.30;5.78;;;;;;;17.05;100.00;100022.56;5087996;28;20040;-18
2023/06/29 01:44:47;;;;;;;11.15;6.20;;;;;;;17.12;100.00;100043.91;5087891;28;20142;-18
2023/06/29 01:47:13;;;;;;;8.35;5.20;;;;;;;17.06;100.00;100039.53;5087980;28;20040;-17
2023/06/29 01:49:39;;;;;;;9.40;5.78;;;;;;;16.95;100.00;100035.19;5088049;28;20028;-18
2023/06/29 01:52:05;;;;;;;9.00;5.45;;;;;;;16.83;100.00;100030.81;5087556;28;20104;-18
2023/06/29 01:54:31;;;;;;;10.75;6.22;;;;;;;16.82;100.00;100023.81;5087446;28;20450;-21
2023/06/29 01:56:57;;;;;;;9.20;5.70;;;;;;;16.86;100.00;100034.88;5088245;28;20455;-19
2023/06/29 01:59:22;;;;;;;9.00;6.32;;;;;;;16.92;100.00;100033.00;5087775;28;20121;-18
2023/06/29 02:01:48;;;;;;;8.05;5.68;;;;;;;16.91;100.00;100036.78;5087827;28;20530;-18
2023/06/29 02:04:13;;;;;;;8.45;5.30;;;;;;;16.85;100.00;100023.28;5087666;28;20349;-18
2023/06/29 02:06:42;;;;;;;8.52;5.07;;;;;;;16.81;100.00;100022.16;5087644;28;20123;-18
2023/06/29 02:09:08;;;;;;;8.05;4.78;;;;;;;16.86;100.00;100030.28;5087352;28;20032;-18
2023/06/29 02:11:33;;;;;;;8.10;4.80;;;;;;;16.76;100.00;100024.03;5087603;28;20046;-18
2023/06/29 02:13:58;;;;;;;7.13;4.90;;;;;;;16.87;100.00;100025.72;5087762;28;20031;-18
2023/06/29 02:16:24;;;;;;;10.05;5.40;;;;;;;16.75;100.00;100031.25;5087428;28;20028;-18
2023/06/29 02:18:49;;;;;;;7.70;4.78;;;;;;;16.86;100.00;100046.44;5087292;28;20819;-18
2023/06/29 02:21:15;;;;;;;8.15;4.95;;;;;;;17.14;100.00;100041.75;5087197;28;20763;-18
2023/06/29 02:23:40;;;;;;;8.23;4.38;;;;;;;17.03;100.00;100034.69;5087385;28;20027;-18
2023/06/29 02:26:06;;;;;;;8.93;4.70;;;;;;;17.02;100.00;100033.06;5087408;28;20024;-19
2023/06/29 02:28:31;;;;;;;7.55;4.55;;;;;;;17.02;100.00;100033.88;5087103;28;20122;-23
2023/06/29 02:30:57;;;;;;;7.28;4.15;;;;;;;16.95;100.00;100032.50;5087215;28;20028;-18
2023/06/29 02:33:22;;;;;;;7.88;4.40;;;;;;;16.96;100.00;100040.31;5087057;28;20111;-18
2023/06/29 02:35:47;;;;;;;7.72;4.47;;;;;;;17.01;100.00;100042.22;5087136;28;20027;-19
2023/06/29 02:38:14;;;;;;;6.65;4.47;;;;;;;17.22;100.00;100040.41;5086904;28;20118;-18
2023/06/29 02:40:39;;;;;;;7.72;4.68;;;;;;;17.31;100.00;100024.56;5086791;28;20030;-18
2023/06/29 02:43:05;;;;;;;6.82;4.90;;;;;;;17.39;100.00;100024.06;5086544;28;20040;-18
2023/06/29 02:45:30;;;;;;;8.15;4.78;;;;;;;17.11;100.00;100015.31;5087137;28;20035;-19
2023/06/29 02:47:55;;;;;;;7.25;4.45;;;;;;;17.12;100.00;100040.38;5086886;28;20111;-18
2023/06/29 02:50:21;;;;;;;6.85;4.32;;;;;;;16.95;100.00;100038.69;5086440;28;20105;-19
2023/06/29 02:52:47;;;;;;;9.52;4.93;;;;;;;17.17;100.00;100030.44;5086713;28;20466;-18
2023/06/29 02:55:13;;;;;;;8.18;4.38;;;;;;;17.20;100.00;100040.72;5086558;28;20024;-18
2023/06/29 02:57:39;;;;;;;8.07;4.53;;;;;;;17.38;100.00;100044.00;5086686;28;20026;-18
2023/06/29 03:00:05;;;;;;;7.25;4.75;;;;;;;17.53;100.00;100038.66;5086070;28;20365;-18
2023/06/29 03:02:31;;;;;;;7.30;4.72;;;;;;;18.39;100.00;100055.25;5086793;28;21313;-18
2023/06/29 03:04:56;;;;;;;6.97;4.05;;;;;;;18.19;100.00;100058.75;5086283;28;20626;-21
2023/06/29 03:07:22;;;;;;;8.63;4.35;;;;;;;18.35;100.00;100048.72;5086516;28;20027;-18
2023/06/29 03:09:47;;;;;;;7.00;4.05;;;;;;;18.20;100.00;100049.56;5086331;28;20024;-16
2023/06/29 03:12:13;;;;;;;7.72;4.38;;;;;;;18.11;100.00;100049.28;5086329;28;20020;-18
2023/06/29 03:14:38;;;;;;;8.38;4.03;;;;;;;18.28;100.00;100054.41;5086140;28;20024;-19
2023/06/29 03:17:04;;;;;;;9.02;4.45;;;;;;;18.21;100.00;100053.88;5086340;28;20032;-22
2023/06/29 03:19:29;;;;;;;8.75;4.28;;;;;;;18.24;100.00;100048.75;5086529;28;20024;-19
2023/06/29 03:21:55;;;;;;;8.82;4.55;;;;;;;17.95;100.00;100055.75;5085963;28;20031;-19
2023/06/29 03:24:20;;;;;;;6.43;4.05;;;;;;;17.89;100.00;100056.81;5086340;28;20016;-19
2023/06/29 03:26:45;;;;;;;8.80;4.25;;;;;;;17.57;100.00;100061.31;5086061;28;20028;-18
2023/06/29 03:29:11;;;;;;;8.55;4.10;;;;;;;17.61;100.00;100046.22;5086118;28;20032;-18
2023/06/29 03:31:36;;;;;;;6.93;3.97;;;;;;;17.89;100.00;100052.22;5085976;28;20032;-18
2023/06/29 03:34:02;;;;;;;7.65;4.32;;;;;;;17.73;100.00;100053.25;5086426;28;20008;-18
2023/06/29 03:36:27;;;;;;;7.43;4.43;;;;;;;17.59;100.00;100056.47;5086178;28;20032;-18
2023/06/29 03:38:52;;;;;;;7.53;4.43;;;;;;;17.44;100.00;100053.72;5085810;28;20038;-18
2023/06/29 03:41:18;;;;;;;6.95;4.75;;;;;;;17.44;100.00;100053.72;5085666;28;20024;-19
2023/06/29 03:43:43;;;;;;;7.45;4.60;;;;;;;17.48;100.00;100054.81;5085589;28;20036;-19
2023/06/29 03:46:09;;;;;;;9.52;4.82;;;;;;;17.46;100.00;100054.25;5085831;28;20441;-19
2023/06/29 03:48:36;;;;;;;7.80;4.40;;;;;;;17.51;100.00;100065.06;5085849;28;20046;-18
2023/06/29 03:51:01;;;;;;;8.43;4.82;;;;;;;17.30;100.00;100061.47;5085925;28;20024;-18
2023/06/29 03:53:27;;;;;;;5.65;4.20;;;;;;;17.38;100.00;100068.25;5084534;28;20035;-18
2023/06/29 03:55:52;;;;;;;7.85;4.13;;;;;;;17.52;100.00;100077.47;5085752;28;20483;-17
2023/06/29 03:58:18;;;;;;;8.25;4.55;;;;;;;17.32;100.00;100069.31;5085684;28;20031;-18
2023/06/29 04:00:44;;;;;;;7.68;4.53;;;;;;;17.27;100.00;100072.78;5085644;28;20110;-18
2023/06/29 04:03:10;;;;;;;6.32;4.35;;;;;;;17.58;100.00;100079.09;5085687;28;20157;-18
2023/06/29 04:05:35;;;;;;;8.82;4.80;;;;;;;17.53;100.00;100065.63;5085401;28;20103;-19
2023/06/29 04:08:05;;;;;;;7.30;4.68;;;;;;;17.48;100.00;100073.69;5085734;28;20028;-18
2023/06/29 04:10:32;;;;;;;8.95;4.60;;;;;;;17.33;100.00;100076.31;5085806;28;20115;-18
2023/06/29 04:12:57;;;;;;;7.40;4.67;;;;;;;17.50;100.00;100082.31;5085446;28;20051;-19
2023/06/29 04:15:23;;;;;;;8.73;4.10;;;;;;;17.71;100.00;100087.75;5085222;28;20713;-18
2023/06/29 04:17:48;;;;;;;9.65;4.80;;;;;;;17.47;100.00;100093.63;5085141;28;20447;-18
2023/06/29 04:20:14;;;;;;;7.05;4.15;;;;;;;17.38;100.00;100070.94;5085576;28;20085;-18
2023/06/29 04:22:39;;;;;;;7.88;4.38;;;;;;;17.66;100.00;100086.69;5085231;28;20134;-18
2023/06/29 04:25:06;;;;;;;6.78;4.85;;;;;;;17.64;100.00;100086.13;5085684;28;20465;-18
2023/06/29 04:27:33;;;;;;;9.70;4.47;;;;;;;17.68;100.00;100092.63;5085363;28;20052;-18
2023/06/29 04:29:59;;;;;;;6.93;4.28;;;;;;;17.69;100.00;100085.31;5085727;28;20772;-18
2023/06/29 04:32:24;;;;;;;6.75;4.43;;;;;;;18.03;100.00;100085.72;5085272;28;20035;-18
2023/06/29 04:34:50;;;;;;;5.60;3.70;;;;;;;18.39;100.00;100103.84;5085305;28;20016;-19
2023/06/29 04:37:15;;;;;;;8.93;4.35;;;;;;;18.28;100.00;100100.31;5085347;28;20024;-19
2023/06/29 04:39:41;;;;;;;5.63;3.75;;;;;;;18.25;100.00;100108.97;5085077;28;20438;-18
2023/06/29 04:42:10;;;;;;;7.40;4.35;;;;;;;18.36;98.73;100104.38;5084803;28;20028;-23
2023/06/29 04:44:36;;;;;;;8.50;4.28;;;;;;;18.52;100.00;100105.19;5085588;28;20103;-19
2023/06/29 04:47:02;;;;;;;9.77;4.78;;;;;;;18.53;97.66;100115.72;5085312;28;20021;-18
2023/06/29 04:49:31;;;;;;;5.55;3.65;;;;;;;18.71;95.08;100105.44;5085006;28;20102;-19
2023/06/29 04:51:59;;;;;;;9.27;4.47;;;;;;;18.50;97.31;100107.34;5085337;28;20134;-18
2023/06/29 04:54:28;;;;;;;7.80;3.92;;;;;;;18.45;100.00;100114.38;5085143;28;20039;-18
2023/06/29 04:56:54;;;;;;;6.57;3.95;;;;;;;18.55;100.00;100105.47;5085048;28;20024;-18
2023/06/29 04:59:24;;;;;;;7.03;3.90;;;;;;;18.50;98.01;100104.63;5085251;28;20616;-18
2023/06/29 05:01:50;;;;;;;5.70;3.92;;;;;;;18.59;98.98;100103.00;5084773;28;20080;-18
2023/06/29 05:04:16;;;;;;;7.82;4.40;;;;;;;18.45;94.75;100114.38;5085307;28;20118;-18
2023/06/29 05:06:41;;;;;;;6.60;4.20;;;;;;;18.35;97.37;100111.66;5084839;28;20024;-19
2023/06/29 05:09:06;;;;;;;7.70;4.07;;;;;;;18.17;99.27;100109.50;5085163;28;20062;-21
2023/06/29 05:11:33;;;;;;;6.10;3.92;;;;;;;18.38;98.04;100119.22;5084964;28;20036;-17
2023/06/29 05:13:58;;;;;;;9.18;4.43;;;;;;;18.65;98.66;100126.22;5085145;28;20092;-18
2023/06/29 05:16:23;;;;;;;7.82;4.70;;;;;;;18.63;99.55;100123.00;5085052;28;20032;-21
2023/06/29 05:18:49;;;;;;;5.90;4.38;;;;;;;18.85;97.14;100139.75;5084759;28;20020;-20
2023/06/29 05:21:14;;;;;;;8.80;4.78;;;;;;;18.81;96.52;100132.47;5084984;28;20399;-20
2023/06/29 05:23:40;;;;;;;8.48;5.03;;;;;;;18.89;96.01;100141.91;5084583;28;20506;-20
2023/06/29 05:26:05;;;;;;;7.18;4.43;;;;;;;18.80;95.78;100142.47;5085094;28;20032;-19
2023/06/29 05:28:31;;;;;;;7.80;4.90;;;;;;;18.71;94.84;100135.94;5087744;28;20048;-19
2023/06/29 05:30:57;;;;;;;7.22;4.35;;;;;;;18.65;95.39;100145.13;5088439;28;20581;-18
2023/06/29 05:33:23;;;;;;;7.68;4.80;;;;;;;18.44;96.96;100138.94;5088226;28;20024;-18
2023/06/29 05:35:49;;;;;;;7.35;4.93;;;;;;;18.46;99.54;100151.06;5088339;28;20107;-18
2023/06/29 05:38:14;;;;;;;8.95;4.57;;;;;;;18.50;99.15;100147.84;5088239;28;20065;-18
2023/06/29 05:40:40;;;;;;;7.30;4.40;;;;;;;18.42;97.84;100152.69;5088059;28;20035;-18
2023/06/29 05:43:05;;;;;;;7.35;5.05;;;;;;;18.42;100.00;100146.50;5087947;28;20036;-19
2023/06/29 05:45:31;;;;;;;7.72;4.85;;;;;;;18.39;100.00;100155.94;5088040;28;20531;-18
2023/06/29 05:47:56;;;;;;;9.52;4.97;;;;;;;18.53;100.00;100155.41;5088002;28;20067;-18
2023/06/29 05:50:21;;;;;;;10.10;4.93;;;;;;;18.49;100.00;100147.03;5105761;28;20027;-19
2023/06/29 05:52:47;;;;;;;11.20;5.13;;;;;;;18.48;96.68;100151.63;5107146;28;20027;-19
2023/06/29 05:55:12;;;;;;;9.75;5.53;;;;;;;18.33;97.52;100154.31;5106527;28;20459;-18
2023/06/29 05:57:38;;;;;;;9.40;4.70;;;;;;;18.32;100.00;100157.28;5107040;28;20023;-24
2023/06/29 06:00:14;;;;;;;8.02;4.95;;;;;;;18.57;100.00;100141.09;5106967;28;20031;-18
2023/06/29 06:02:40;;;;;;;8.52;5.28;;;;;;;18.81;97.70;100140.56;5105742;28;20789;-18
2023/06/29 06:05:09;;;;;;;8.75;5.88;;;;;;;18.96;98.14;100131.63;5108173;28;20523;-19
2023/06/29 06:07:35;;;;;;;9.45;5.50;;;;;;;19.30;94.93;100136.44;5108204;28;20036;-19
2023/06/29 06:10:01;;;;;;;9.77;5.90;;;;;;;19.62;97.74;100128.72;5107822;28;20059;-18
2023/06/29 06:12:26;;;;;;;8.00;4.97;;;;;;;19.86;95.70;100117.28;5107923;28;20035;-17
2023/06/29 06:14:52;;;;;;;8.43;4.38;;;;;;;20.21;89.41;100142.53;5107965;28;20052;-18
2023/06/29 06:17:17;;;;;;;8.00;4.90;;;;;;;20.15;88.01;100140.94;5107753;28;20403;-18
2023/06/29 06:19:43;;;;;;;7.78;4.60;;;;;;;20.27;86.81;100138.69;5107863;28;20027;-18
2023/06/29 06:22:09;;;;;;;6.80;4.65;;;;;;;20.36;85.48;100134.28;5107790;28;20039;-21
2023/06/29 06:24:34;;;;;;;7.70;4.28;;;;;;;20.39;84.10;100130.19;5107708;28;20482;-18
2023/06/29 06:27:01;;;;;;;7.95;5.05;;;;;;;20.44;81.95;100130.97;5107753;28;20104;-18
2023/06/29 06:29:27;;;;;;;7.22;4.53;;;;;;;20.45;85.98;100129.88;5107631;28;20464;-19
2023/06/29 06:31:52;;;;;;;8.73;4.88;;;;;;;20.45;86.22;100129.88;5107562;28;20032;-18
2023/06/29 06:34:18;;;;;;;7.35;4.55;;;;;;;20.59;80.26;100137.38;5107437;28;20035;-18
2023/06/29 06:36:45;;;;;;;9.10;4.90;;;;;;;20.75;83.28;100136.16;5107378;28;20043;-18
2023/06/29 06:39:11;;;;;;;7.03;4.40;;;;;;;20.75;78.20;100136.16;5106957;28;20118;-19
2023/06/29 06:41:36;;;;;;;6.95;4.25;;;;;;;20.56;77.54;100132.50;5107602;28;20114;-19
2023/06/29 07:01:13;;;;;;;8.52;4.30;;;;;;;21.26;73.95;100135.63;5106716;28;20143;-18
2023/06/29 07:03:39;;;;;;;7.20;4.22;;;;;;;21.23;75.82;100135.44;5106719;28;20069;-19
2023/06/29 07:06:04;;;;;;;7.47;4.43;;;;;;;21.61;75.58;100130.09;5106742;28;20020;-19
2023/06/29 07:08:32;;;;;;;6.47;4.20;;;;;;;21.60;73.51;100134.75;5106943;28;20114;-18
2023/06/29 07:11:00;;;;;;;6.43;3.88;;;;;;;21.69;72.36;100132.19;5106630;28;20031;-17
2023/06/29 07:13:27;;;;;;;;;;;;;;;21.81;69.96;100131.75;5107332;28;20108;-19
2023/06/29 07:15:55;;;;;;;7.90;4.60;;;;;;;21.72;71.57;100128.06;5106683;28;20687;-19
2023/06/29 07:18:23;;;;;;;6.60;4.45;;;;;;;21.86;66.78;100131.66;5106529;28;20070;-18
2023/06/29 07:20:49;;;;;;;6.35;4.57;;;;;;;21.73;70.94;100127.78;5106396;28;20024;-21
2023/06/29 07:23:17;;;;;;;6.28;4.18;;;;;;;21.78;71.64;100129.59;5106668;28;20738;-18
2023/06/29 07:25:46;;;;;;;5.70;3.83;;;;;;;21.86;68.16;100123.53;5106608;28;20089;-19
2023/06/29 07:28:11;;;;;;;7.15;4.05;;;;;;;21.87;68.18;100133.31;5106525;28;20031;-18
2023/06/29 07:30:39;;;;;;;8.07;4.15;;;;;;;21.90;67.52;100124.56;5106249;28;20027;-22
2023/06/29 07:33:09;;;;;;;7.60;4.28;;;;;;;21.95;68.56;100129.94;5106463;28;20034;-18
2023/06/29 07:35:37;;;;;;;8.18;3.95;;;;;;;22.16;67.62;100133.16;5106312;28;20089;-20
2023/06/29 07:38:04;;;;;;;;;;;;;;;22.28;67.65;100127.31;5106630;28;20035;-18
2023/06/29 07:40:32;;;;;;;9.13;4.63;;;;;;;22.41;68.97;100137.44;5106068;28;19916;-18
2023/06/29 07:42:58;;;;;;;5.60;4.00;;;;;;;22.56;65.51;100138.28;5105859;28;20492;-18
2023/06/29 07:45:25;;;;;;;6.43;3.95;;;;;;;22.67;66.58;100126.13;5106097;28;20024;-19
2023/06/29 07:47:51;;;;;;;6.63;4.65;;;;;;;22.67;63.71;100128.84;5105983;28;20020;-18
2023/06/29 07:50:18;;;;;;;6.30;4.50;;;;;;;22.97;65.15;100126.69;5105425;28;20034;-24
2023/06/29 07:52:44;;;;;;;;;;;;;;;22.81;61.22;100134.31;5106648;28;20046;-22
2023/06/29 07:55:18;;;;;;;6.00;3.90;;;;;;;22.56;62.86;100132.84;5092255;28;19912;-20
2023/06/29 07:57:46;;;;;;;5.85;3.83;;;;;;;22.59;62.27;100132.25;5085906;28;20031;-19
2023/06/29 08:00:14;;;;;;;6.82;4.28;;;;;;;22.81;63.16;100134.31;5085471;28;20789;-18
2023/06/29 08:02:49;;;;;;;8.10;4.93;;;;;;;23.11;62.31;100133.00;5085631;28;20020;-20
2023/06/29 08:05:15;;;;;;;7.97;4.85;;;;;;;23.12;62.32;100131.88;5085706;28;20062;-18
2023/06/29 08:07:42;;;;;;;5.57;4.32;;;;;;;23.02;61.10;100132.84;5085284;28;20028;-18
2023/06/29 08:10:11;;;;;;;6.60;4.20;;;;;;;23.14;61.15;100148.69;5085485;28;20032;-18
2023/06/29 08:12:36;;;;;;;6.15;4.30;;;;;;;23.09;62.65;100137.91;5085465;28;20139;-18
2023/06/29 08:15:05;;;;;;;6.10;4.30;;;;;;;23.44;63.70;100135.63;5085257;28;20421;-18
2023/06/29 08:17:30;;;;;;;7.72;4.43;;;;;;;23.84;60.66;100138.59;5085158;28;20461;-19
2023/06/29 08:19:56;;;;;;;8.02;4.70;;;;;;;23.82;59.25;100135.38;5089253;28;20506;-18
2023/06/29 08:22:21;;;;;;;7.55;5.00;;;;;;;23.55;56.91;100142.44;5105657;28;20757;-18
2023/06/29 08:24:47;;;;;;;6.55;4.30;;;;;;;23.63;59.70;100144.44;5104982;28;20045;-19
2023/06/29 08:27:12;;;;;;;5.35;4.03;;;;;;;23.74;57.05;100133.34;5105503;28;20032;-18
2023/06/29 08:29:47;;;;;;;6.32;4.30;;;;;;;23.64;58.27;100129.75;5105630;28;20028;-20
2023/06/29 08:32:13;;;;;;;6.07;4.47;;;;;;;23.64;55.16;100137.91;5105544;28;20028;-18
2023/06/29 08:34:38;;;;;;;8.43;4.22;;;;;;;24.01;59.80;100136.03;5104787;28;20072;-18
2023/06/29 08:37:04;;;;;;;5.95;4.40;;;;;;;24.42;59.04;100129.63;5105239;28;20084;-19
2023/06/29 08:39:30;;;;;;;5.93;4.10;;;;;;;24.68;58.66;100134.47;5105704;28;20410;-19
2023/06/29 08:41:58;;;;;;;6.57;3.92;;;;;;;24.84;52.93;100135.69;5105195;28;20085;-19
2023/06/29 08:44:25;;;;;;;5.95;3.42;;;;;;;24.65;51.10;100132.38;5105402;28;20031;-18
2023/06/29 08:46:52;;;;;;;5.70;3.88;;;;;;;24.32;55.20;100126.34;5104997;28;20055;-18
2023/06/29 08:49:23;;;;;;;6.95;3.55;;;;;;;24.20;53.12;100124.97;5105623;28;20119;-19
2023/06/29 08:51:52;;;;;;;7.78;3.90;;;;;;;24.43;54.67;100112.16;5104458;28;20039;-19
2023/06/29 08:54:20;;;;;;;6.82;4.25;;;;;;;24.96;54.68;100117.94;5105372;28;20046;-19
2023/06/29 08:56:50;;;;;;;7.50;5.30;;;;;;;24.44;52.28;100118.44;5105490;28;20030;-18
2023/06/29 08:59:21;;;;;;;6.85;4.15;;;;;;;24.27;51.69;100109.00;5105648;28;20097;-19
2023/06/29 09:01:47;;;;;;;5.82;3.58;;;;;;;24.53;50.61;100113.06;5105755;28;20037;-21
2023/06/29 09:04:14;;;;;;;5.53;3.38;;;;;;;25.04;48.32;100117.16;5108584;28;20043;-20
2023/06/29 09:06:43;;;;;;;4.53;3.47;;;;;;;25.35;49.47;100108.16;5109296;28;20031;-20
2023/06/29 09:09:10;;;;;;;5.95;3.83;;;;;;;25.02;50.70;100103.03;5108425;28;20035;-18
2023/06/29 09:11:35;;;;;;;5.75;4.13;;;;;;;24.89;53.21;100110.22;5109156;28;20035;-19
2023/06/29 09:14:10;;;;;;;5.47;3.83;;;;;;;24.53;54.27;100099.44;5108980;28;20034;-18
2023/06/29 09:16:48;;;;;;;5.00;3.80;;;;;;;24.72;56.96;100099.19;5108601;28;20024;-19
2023/06/29 09:19:13;;;;;;;;;;;;;;;25.21;51.68;100098.19;5109298;28;20019;-19
2023/06/29 09:21:47;;;;;;;5.27;3.80;;;;;;;25.17;52.44;100094.44;5109020;28;19964;-18
2023/06/29 09:24:14;;;;;;;6.07;3.50;;;;;;;25.26;46.44;100105.41;5109271;28;20019;-19
2023/06/29 09:26:42;;;;;;;6.35;3.72;;;;;;;25.42;49.44;100092.94;5109130;28;20023;-18
2023/06/29 09:29:08;;;;;;;4.18;3.03;;;;;;;25.79;48.88;100087.22;5108726;28;20111;-18
2023/06/29 09:31:36;;;;;;;4.75;3.30;;;;;;;25.73;47.29;100104.88;5108798;28;20122;-18
2023/06/29 09:34:25;;;;;;;4.10;3.13;;;;;;;25.45;45.15;100096.94;5108466;28;20019;-18
2023/06/29 09:36:58;;;;;;;5.10;3.53;;;;;;;25.50;45.40;100101.44;5108773;28;20023;-18
2023/06/29 09:39:26;;;;;;;5.50;3.63;;;;;;;25.76;47.26;100096.03;5090004;28;20034;-18
2023/06/29 09:41:54;;;;;;;5.80;3.65;;;;;;;25.60;46.10;100091.03;5108074;28;20030;-18
2023/06/29 09:44:25;;;;;;;5.10;3.25;;;;;;;25.91;46.56;100084.66;5108294;28;20032;-18
2023/06/29 09:47:04;;;;;;;6.57;3.50;;;;;;;26.09;46.93;100076.44;5108363;28;20031;-19
2023/06/29 09:49:31;;;;;;;4.88;3.38;;;;;;;26.66;48.12;100081.66;5108453;28;20031;-19
2023/06/29 09:52:06;;;;;;;5.20;3.53;;;;;;;26.66;45.03;100084.41;5108231;28;20024;-18
2023/06/29 09:54:35;;;;;;;5.03;3.65;;;;;;;26.53;45.63;100086.19;5108010;28;20028;-18
2023/06/29 09:57:03;;;;;;;4.80;3.22;;;;;;;26.46;50.43;100078.50;5108225;28;20035;-19
2023/06/29 09:59:37;;;;;;;4.28;3.25;;;;;;;26.74;45.62;100080.84;5107891;28;20080;-19
2023/06/29 10:02:03;;;;;;;6.60;3.25;;;;;;;26.78;44.61;100086.47;5108202;28;20039;-18
2023/06/29 10:04:31;;;;;;;4.38;3.25;;;;;;;26.77;46.28;100082.13;5107954;28;20397;-17
2023/06/29 10:07:08;;;;;;;5.97;4.00;;;;;;;26.82;44.73;100073.75;5107685;28;20649;-19
2023/06/29 10:09:39;;;;;;;5.15;3.45;;;;;;;26.55;44.69;100072.19;5107931;28;20050;-18
2023/06/29 10:12:09;;;;;;;4.18;2.90;;;;;;;26.63;44.65;100063.19;5106759;28;20027;-18
2023/06/29 10:14:44;;;;;;;4.45;2.97;;;;;;;26.66;42.93;100051.59;5106323;28;20027;-18
2023/06/29 10:17:34;;;;;;;4.57;3.20;;;;;;;27.09;44.92;100064.28;5107806;28;20528;-18
2023/06/29 10:20:07;;;;;;;5.47;3.22;;;;;;;27.44;43.53;100058.63;5108106;28;20103;-19
2023/06/29 10:22:35;;;;;;;6.50;3.83;;;;;;;27.58;43.46;100052.88;5107839;28;20023;-19
2023/06/29 10:25:03;;;;;;;;;;;;;;;27.53;41.17;100061.31;5108112;28;20573;-18
2023/06/29 10:27:30;;;;;;;5.57;3.20;;;;;;;27.36;42.53;100054.00;5107667;28;20408;-18
2023/06/29 10:29:56;;;;;;;4.05;2.83;;;;;;;27.43;43.69;100052.34;5107356;28;20546;-18
2023/06/29 10:32:29;;;;;;;4.05;3.03;;;;;;;27.77;42.33;100052.44;5107629;28;20106;-19
2023/06/29 10:35:09;;;;;;;3.78;3.17;;;;;;;27.36;44.29;100032.91;5107333;28;20034;-18
2023/06/29 10:37:40;;;;;;;4.55;3.17;;;;;;;27.47;46.14;100030.56;5107490;28;20023;-18
2023/06/29 10:40:18;;;;;;;5.30;3.03;;;;;;;27.51;43.13;100050.69;5107534;28;20042;-18
2023/06/29 10:42:43;;;;;;;5.47;3.38;;;;;;;27.79;43.76;100050.97;5107354;28;20103;-18
2023/06/29 10:45:09;;;;;;;4.10;3.10;;;;;;;28.00;42.64;100056.44;5107166;28;20114;-19
2023/06/29 10:47:39;;;;;;;4.95;3.03;;;;;;;27.87;43.08;100046.59;5107281;28;20057;-19
2023/06/29 10:50:10;;;;;;;4.32;2.90;;;;;;;28.17;44.97;100046.44;5107222;28;20028;-19
2023/06/29 10:52:40;;;;;;;5.57;3.20;;;;;;;27.93;45.24;100033.44;5107144;28;20493;-19
2023/06/29 10:55:41;;;;;;;4.85;2.88;;;;;;;28.28;39.52;100042.16;5107258;28;20048;-19
2023/06/29 10:58:32;;;;;;;5.63;2.85;;;;;;;28.47;43.37;100021.63;5036753;28;20055;-18
2023/06/29 11:00:57;;;;;;;3.63;2.88;;;;;;;28.62;38.24;100040.19;5107050;28;20081;-18
2023/06/29 11:03:26;;;;;;;4.55;2.80;;;;;;;29.00;39.31;100039.06;5106692;28;20027;-18
2023/06/29 11:05:53;;;;;;;4.05;2.83;;;;;;;28.68;35.43;100033.31;5106739;28;20027;-19
2023/06/29 11:08:24;;;;;;;4.82;3.10;;;;;;;28.64;40.27;100037.91;5106720;28;20448;-18
2023/06/29 11:10:53;;;;;;;4.53;2.90;;;;;;;28.45;38.81;100036.47;5106376;28;20016;-21
2023/06/29 11:13:20;;;;;;;4.43;3.25;;;;;;;28.45;41.06;100021.97;5106667;28;20061;-20
2023/06/29 11:15:58;;;;;;;4.90;3.08;;;;;;;28.58;37.68;100039.25;5089202;28;20629;-18
2023/06/29 11:18:23;;;;;;;4.55;3.00;;;;;;;28.63;40.25;100030.81;5105007;28;20494;-18
2023/06/29 11:20:49;;;;;;;3.95;2.70;;;;;;;28.84;38.65;100027.97;5106487;28;20051;-19
2023/06/29 11:23:16;;;;;;;3.33;2.67;;;;;;;28.88;36.86;100026.13;5106540;28;20042;-19
2023/06/29 11:25:42;;;;;;;4.22;2.63;;;;;;;29.30;38.29;100025.09;5106384;28;20024;-18
2023/06/29 11:28:09;;;;;;;3.85;2.65;;;;;;;29.51;38.30;100023.00;5106527;28;20376;-19
2023/06/29 11:30:38;;;;;;;;;;;;;;;28.89;39.54;100021.44;5106652;28;20030;-19
2023/06/29 11:33:03;;;;;;;3.72;2.80;;;;;;;28.78;39.08;100019.16;5106282;28;20307;-17
2023/06/29 11:35:31;;;;;;;4.13;2.60;;;;;;;29.10;40.07;100013.88;5106182;28;20035;-18
2023/06/29 11:38:01;;;;;;;5.75;2.80;;;;;;;29.05;38.54;100016.84;5106185;28;20023;-18
2023/06/29 11:40:27;;;;;;;3.83;2.50;;;;;;;29.07;39.80;100006.31;5106003;28;20088;-19